sensor_id;sensor_type;location;lat;lon;timestamp;pressure;altitude;pressure_sealevel;temperature;humidity
75039;BME280;63609;49.992;14.512;2022-12-18T00:00:53;99422.44;;;-12.25;61.45
75039;BME280;63609;49.992;14.512;2022-12-18T00:03:20;99372.41;;;-12.42;59.37
75039;BME280;63609;49.992;14.512;2022-12-18T00:05:51;99443.66;;;-11.78;58.14
75039;BME280;63609;49.992;14.512;2022-12-18T00:08:19;99436.47;;;-12.02;56.29
75039;BME280;63609;49.992;14.512;2022-12-18T00:10:46;99456.16;;;-12.05;57.04
75039;BME280;63609;49.992;14.512;2022-12-18T00:13:13;99458.09;;;-11.90;56.73
75039;BME280;63609;49.992;14.512;2022-12-18T00:15:40;99452.19;;;-11.80;55.13
75039;BME280;63609;49.992;14.512;2022-12-18T00:18:07;99458.25;;;-11.77;56.37
75039;BME280;63609;49.992;14.512;2022-12-18T00:20:39;99424.56;;;-11.93;56.27
75039;BME280;63609;49.992;14.512;2022-12-18T00:23:06;99452.94;;;-11.89;55.30
75039;BME280;63609;49.992;14.512;2022-12-18T00:25:36;99410.63;;;-12.09;56.60
75039;BME280;63609;49.992;14.512;2022-12-18T00:28:04;99428.81;;;-11.97;57.00
75039;BME280;63609;49.992;14.512;2022-12-18T00:30:31;99447.78;;;-11.92;57.88
75039;BME280;63609;49.992;14.512;2022-12-18T00:33:02;99470.00;;;-11.97;58.42
75039;BME280;63609;49.992;14.512;2022-12-18T00:35:29;99462.47;;;-11.83;57.16
75039;BME280;63609;49.992;14.512;2022-12-18T00:38:04;99441.94;;;-12.38;56.68
75039;BME280;63609;49.992;14.512;2022-12-18T00:40:33;99463.44;;;-12.34;56.95
75039;BME280;63609;49.992;14.512;2022-12-18T00:43:15;99501.19;;;-12.33;57.73
75039;BME280;63609;49.992;14.512;2022-12-18T00:45:42;99422.88;;;-13.05;56.51
75039;BME280;63609;49.992;14.512;2022-12-18T00:48:25;99465.00;;;-12.44;57.14
75039;BME280;63609;49.992;14.512;2022-12-18T00:50:52;99465.75;;;-12.52;56.68
75039;BME280;63609;49.992;14.512;2022-12-18T00:53:19;99501.19;;;-12.33;58.13
75039;BME280;63609;49.992;14.512;2022-12-18T00:55:50;99466.47;;;-12.59;58.58
75039;BME280;63609;49.992;14.512;2022-12-18T00:58:18;99518.22;;;-12.40;58.64
75039;BME280;63609;49.992;14.512;2022-12-18T01:00:59;99469.91;;;-12.60;58.45
75039;BME280;63609;49.992;14.512;2022-12-18T01:03:33;99484.78;;;-12.41;59.79
75039;BME280;63609;49.992;14.512;2022-12-18T01:06:13;99471.19;;;-12.32;58.85
75039;BME280;63609;49.992;14.512;2022-12-18T01:08:42;99443.47;;;-12.50;57.45
75039;BME280;63609;49.992;14.512;2022-12-18T01:11:17;99513.50;;;-12.14;58.37
75039;BME280;63609;49.992;14.512;2022-12-18T01:13:48;99514.94;;;-12.31;58.74
75039;BME280;63609;49.992;14.512;2022-12-18T01:16:16;99520.88;;;-12.88;59.20
75039;BME280;63609;49.992;14.512;2022-12-18T01:18:43;99515.38;;;-13.50;59.81
75039;BME280;63609;49.992;14.512;2022-12-18T01:21:14;99517.13;;;-13.47;61.66
75039;BME280;63609;49.992;14.512;2022-12-18T01:23:44;99516.56;;;-13.33;64.02
75039;BME280;63609;49.992;14.512;2022-12-18T01:26:14;99525.34;;;-13.23;63.59
75039;BME280;63609;49.992;14.512;2022-12-18T01:28:42;99530.88;;;-13.02;62.67
75039;BME280;63609;49.992;14.512;2022-12-18T01:31:16;99530.28;;;-12.88;62.01
75039;BME280;63609;49.992;14.512;2022-12-18T01:33:49;99532.03;;;-12.86;62.98
75039;BME280;63609;49.992;14.512;2022-12-18T01:36:18;99532.63;;;-12.52;62.17
75039;BME280;63609;49.992;14.512;2022-12-18T01:38:46;99528.00;;;-13.18;64.87
75039;BME280;63609;49.992;14.512;2022-12-18T01:41:18;99534.75;;;-13.23;66.62
75039;BME280;63609;49.992;14.512;2022-12-18T01:43:52;99465.78;;;-13.47;66.03
75039;BME280;63609;49.992;14.512;2022-12-18T01:46:24;99460.59;;;-13.04;64.56
75039;BME280;63609;49.992;14.512;2022-12-18T01:49:00;99514.66;;;-12.98;65.88
75039;BME280;63609;49.992;14.512;2022-12-18T01:51:34;99545.00;;;-12.78;67.07
75039;BME280;63609;49.992;14.512;2022-12-18T01:54:10;99504.25;;;-12.57;64.13
75039;BME280;63609;49.992;14.512;2022-12-18T01:56:46;99538.88;;;-11.82;61.87
75039;BME280;63609;49.992;14.512;2022-12-18T01:59:15;99539.00;;;-11.72;61.20
75039;BME280;63609;49.992;14.512;2022-12-18T02:01:44;99517.91;;;-12.07;63.04
75039;BME280;63609;49.992;14.512;2022-12-18T02:04:27;99502.00;;;-12.36;62.98
75039;BME280;63609;49.992;14.512;2022-12-18T02:07:08;99532.00;;;-11.83;62.07
75039;BME280;63609;49.992;14.512;2022-12-18T02:09:48;99531.47;;;-11.61;60.84
75039;BME280;63609;49.992;14.512;2022-12-18T02:12:24;99523.91;;;-11.46;60.39
75039;BME280;63609;49.992;14.512;2022-12-18T02:15:26;99538.84;;;-11.20;59.72
75039;BME280;63609;49.992;14.512;2022-12-18T02:18:11;99512.72;;;-11.48;59.53
75039;BME280;63609;49.992;14.512;2022-12-18T02:20:55;99509.72;;;-11.80;61.37
75039;BME280;63609;49.992;14.512;2022-12-18T02:26:50;99552.88;;;-10.98;61.23
75039;BME280;63609;49.992;14.512;2022-12-18T02:29:36;99520.31;;;-10.87;59.75
75039;BME280;63609;49.992;14.512;2022-12-18T02:32:30;99564.56;;;-10.48;59.34
75039;BME280;63609;49.992;14.512;2022-12-18T02:35:47;99524.09;;;-10.53;59.28
75039;BME280;63609;49.992;14.512;2022-12-18T02:38:33;99527.69;;;-10.34;58.84
75039;BME280;63609;49.992;14.512;2022-12-18T02:41:16;99493.97;;;-10.54;58.85
75039;BME280;63609;49.992;14.512;2022-12-18T02:43:56;99557.13;;;-10.09;59.90
75039;BME280;63609;49.992;14.512;2022-12-18T02:46:48;99500.44;;;-10.97;65.15
75039;BME280;63609;49.992;14.512;2022-12-18T03:01:56;99531.06;;;-10.38;70.82
75039;BME280;63609;49.992;14.512;2022-12-18T03:10:48;99543.50;;;-9.95;70.88
75039;BME280;63609;49.992;14.512;2022-12-18T03:13:31;99512.59;;;-9.75;70.01
75039;BME280;63609;49.992;14.512;2022-12-18T03:16:07;99531.09;;;-9.05;67.41
75039;BME280;63609;49.992;14.512;2022-12-18T03:21:12;99527.75;;;-8.60;63.84
75039;BME280;63609;49.992;14.512;2022-12-18T03:27:35;99574.38;;;-8.41;65.45
75039;BME280;63609;49.992;14.512;2022-12-18T03:30:37;99569.22;;;-8.38;65.78
75039;BME280;63609;49.992;14.512;2022-12-18T03:35:57;99531.22;;;-8.42;65.24
75039;BME280;63609;49.992;14.512;2022-12-18T03:38:38;99558.88;;;-8.26;65.32
75039;BME280;63609;49.992;14.512;2022-12-18T03:41:29;99597.75;;;-8.00;63.76
75039;BME280;63609;49.992;14.512;2022-12-18T03:44:41;99563.19;;;-8.08;63.30
75039;BME280;63609;49.992;14.512;2022-12-18T03:47:17;99563.19;;;-7.99;63.24
75039;BME280;63609;49.992;14.512;2022-12-18T03:53:41;99577.88;;;-7.83;64.42
75039;BME280;63609;49.992;14.512;2022-12-18T03:56:25;99537.28;;;-8.28;66.35
75039;BME280;63609;49.992;14.512;2022-12-18T03:59:01;99581.34;;;-7.87;66.47
75039;BME280;63609;49.992;14.512;2022-12-18T04:01:36;99592.56;;;-8.00;67.27
75039;BME280;63609;49.992;14.512;2022-12-18T04:04:17;99564.03;;;-8.18;67.91
75039;BME280;63609;49.992;14.512;2022-12-18T04:06:57;99613.28;;;-7.76;67.64
75039;BME280;63609;49.992;14.512;2022-12-18T04:09:34;99577.03;;;-7.99;67.49
75039;BME280;63609;49.992;14.512;2022-12-18T04:12:08;99583.94;;;-7.75;66.87
75039;BME280;63609;49.992;14.512;2022-12-18T04:14:57;99589.09;;;-8.08;68.29
75039;BME280;63609;49.992;14.512;2022-12-18T04:17:48;99597.75;;;-7.85;68.64
75039;BME280;63609;49.992;14.512;2022-12-18T04:20:34;99601.19;;;-7.55;66.49
75039;BME280;63609;49.992;14.512;2022-12-18T04:23:16;99615.84;;;-7.24;66.63
75039;BME280;63609;49.992;14.512;2022-12-18T04:25:47;99586.44;;;-7.20;65.91
75039;BME280;63609;49.992;14.512;2022-12-18T04:28:23;99585.56;;;-7.25;65.06
75039;BME280;63609;49.992;14.512;2022-12-18T04:31:12;99630.56;;;-7.44;66.85
75039;BME280;63609;49.992;14.512;2022-12-18T04:33:45;99569.25;;;-7.89;67.33
75039;BME280;63609;49.992;14.512;2022-12-18T04:36:13;99596.88;;;-7.78;67.59
75039;BME280;63609;49.992;14.512;2022-12-18T04:38:52;99622.69;;;-6.97;63.10
75039;BME280;63609;49.992;14.512;2022-12-18T04:41:25;99600.19;;;-6.92;61.31
75039;BME280;63609;49.992;14.512;2022-12-18T04:43:56;99630.38;;;-6.63;60.55
75039;BME280;63609;49.992;14.512;2022-12-18T04:46:29;99619.16;;;-6.72;61.01
75039;BME280;63609;49.992;14.512;2022-12-18T04:48:56;99592.34;;;-6.74;60.65
75039;BME280;63609;49.992;14.512;2022-12-18T04:51:28;99619.09;;;-6.61;60.94
75039;BME280;63609;49.992;14.512;2022-12-18T04:54:07;99623.50;;;-6.75;61.17
75039;BME280;63609;49.992;14.512;2022-12-18T04:56:43;99595.00;;;-6.95;61.37
75039;BME280;63609;49.992;14.512;2022-12-18T04:59:22;99572.56;;;-7.14;61.43
75039;BME280;63609;49.992;14.512;2022-12-18T05:01:57;99628.69;;;-6.71;61.54
75039;BME280;63609;49.992;14.512;2022-12-18T05:04:38;99629.59;;;-6.88;61.97
75039;BME280;63609;49.992;14.512;2022-12-18T05:08:02;99604.56;;;-7.11;62.21
75039;BME280;63609;49.992;14.512;2022-12-18T05:10:31;99583.03;;;-7.48;63.03
75039;BME280;63609;49.992;14.512;2022-12-18T05:13:19;99578.72;;;-7.79;63.70
75039;BME280;63609;49.992;14.512;2022-12-18T05:15:51;99626.19;;;-7.15;62.57
75039;BME280;63609;49.992;14.512;2022-12-18T05:18:30;99644.38;;;-7.24;63.78
75039;BME280;63609;49.992;14.512;2022-12-18T05:20:57;99630.56;;;-7.46;64.03
75039;BME280;63609;49.992;14.512;2022-12-18T05:23:38;99614.13;;;-7.33;62.70
75039;BME280;63609;49.992;14.512;2022-12-18T05:26:17;99664.28;;;-7.50;65.07
75039;BME280;63609;49.992;14.512;2022-12-18T05:28:56;99634.03;;;-7.41;64.32
75039;BME280;63609;49.992;14.512;2022-12-18T05:31:30;99614.94;;;-7.12;63.00
75039;BME280;63609;49.992;14.512;2022-12-18T05:34:06;99617.56;;;-7.24;62.92
75039;BME280;63609;49.992;14.512;2022-12-18T05:36:35;99649.47;;;-6.86;62.25
75039;BME280;63609;49.992;14.512;2022-12-18T05:39:08;99635.66;;;-6.92;61.83
75039;BME280;63609;49.992;14.512;2022-12-18T05:41:35;99608.00;;;-6.99;61.00
75039;BME280;63609;49.992;14.512;2022-12-18T05:44:46;99667.75;;;-7.33;63.50
75039;BME280;63609;49.992;14.512;2022-12-18T05:47:13;99672.94;;;-7.70;65.05
75039;BME280;63609;49.992;14.512;2022-12-18T05:49:46;99650.41;;;-8.13;66.09
75039;BME280;63609;49.992;14.512;2022-12-18T05:52:30;99649.41;;;-8.63;67.66
75039;BME280;63609;49.992;14.512;2022-12-18T05:55:20;99630.44;;;-8.55;67.83
75039;BME280;63609;49.992;14.512;2022-12-18T05:58:08;99686.72;;;-7.98;66.93
75039;BME280;63609;49.992;14.512;2022-12-18T06:00:49;99646.06;;;-8.25;67.41
75039;BME280;63609;49.992;14.512;2022-12-18T06:06:49;99623.63;;;-7.28;63.45
75039;BME280;63609;49.992;14.512;2022-12-18T06:10:05;99634.94;;;-7.74;64.84
75039;BME280;63609;49.992;14.512;2022-12-18T06:12:40;99639.19;;;-7.09;63.73
75039;BME280;63609;49.992;14.512;2022-12-18T06:15:27;99643.50;;;-7.14;63.19
75039;BME280;63609;49.992;14.512;2022-12-18T06:21:16;99658.19;;;-6.96;63.57
75039;BME280;63609;49.992;14.512;2022-12-18T06:23:46;99694.44;;;-6.64;63.04
75039;BME280;63609;49.992;14.512;2022-12-18T06:26:25;99669.47;;;-7.26;64.91
75039;BME280;63609;49.992;14.512;2022-12-18T06:29:31;99673.81;;;-7.65;66.42
75039;BME280;63609;49.992;14.512;2022-12-18T06:32:49;99695.38;;;-7.78;67.98
75039;BME280;63609;49.992;14.512;2022-12-18T06:35:59;99667.75;;;-7.71;66.54
75039;BME280;63609;49.992;14.512;2022-12-18T06:39:08;99727.41;;;-7.65;68.25
75039;BME280;63609;49.992;14.512;2022-12-18T06:41:41;99673.81;;;-7.34;66.16
75039;BME280;63609;49.992;14.512;2022-12-18T06:44:29;99658.19;;;-7.02;64.24
75039;BME280;63609;49.992;14.512;2022-12-18T06:47:14;99684.94;;;-6.70;63.18
75039;BME280;63609;49.992;14.512;2022-12-18T06:54:05;99750.53;;;-6.14;63.11
75039;BME280;63609;49.992;14.512;2022-12-18T06:57:08;99752.31;;;-6.21;62.57
75039;BME280;63609;49.992;14.512;2022-12-18T06:59:51;99703.03;;;-6.45;62.15
75039;BME280;63609;49.992;14.512;2022-12-18T07:02:41;99724.66;;;-6.34;62.18
75039;BME280;63609;49.992;14.512;2022-12-18T07:06:18;99735.88;;;-6.30;61.49
75039;BME280;63609;49.992;14.512;2022-12-18T07:14:16;99718.63;;;-6.44;62.65
75039;BME280;63609;49.992;14.512;2022-12-18T07:30:47;99751.47;;;-6.29;61.67
75039;BME280;63609;49.992;14.512;2022-12-18T08:01:21;99802.59;;;-6.46;62.41
75039;BME280;63609;49.992;14.512;2022-12-18T08:04:39;99827.78;;;-6.73;62.23
75039;BME280;63609;49.992;14.512;2022-12-18T08:08:04;99832.97;;;-6.76;61.80
75039;BME280;63609;49.992;14.512;2022-12-18T08:11:25;99778.38;;;-7.73;63.36
75039;BME280;63609;49.992;14.512;2022-12-18T08:14:07;99800.75;;;-8.01;63.77
75039;BME280;63609;49.992;14.512;2022-12-18T08:16:37;99768.78;;;-8.06;63.95
75039;BME280;63609;49.992;14.512;2022-12-18T08:23:31;99785.25;;;-7.80;63.51
75039;BME280;63609;49.992;14.512;2022-12-18T08:30:26;99825.06;;;-7.63;63.93
75039;BME280;63609;49.992;14.512;2022-12-18T08:33:49;99806.84;;;-7.88;64.21
75039;BME280;63609;49.992;14.512;2022-12-18T08:37:45;99825.84;;;-7.88;64.76
75039;BME280;63609;49.992;14.512;2022-12-18T08:40:12;99787.56;;;-8.42;65.56
75039;BME280;63609;49.992;14.512;2022-12-18T08:42:59;99837.97;;;-7.78;64.17
75039;BME280;63609;49.992;14.512;2022-12-18T08:46:07;99787.81;;;-7.87;64.02
75039;BME280;63609;49.992;14.512;2022-12-18T08:48:41;99851.97;;;-7.13;62.41
75039;BME280;63609;49.992;14.512;2022-12-18T08:51:29;99797.47;;;-7.39;61.71
75039;BME280;63609;49.992;14.512;2022-12-18T08:54:45;99829.47;;;-7.40;63.26
75039;BME280;63609;49.992;14.512;2022-12-18T08:58:26;99840.72;;;-7.21;62.55
75039;BME280;63609;49.992;14.512;2022-12-18T09:04:28;99788.84;;;-7.00;60.68
75039;BME280;63609;49.992;14.512;2022-12-18T09:10:42;99804.13;;;-8.17;65.53
75039;BME280;63609;49.992;14.512;2022-12-18T09:13:35;99851.13;;;-7.09;62.90
75039;BME280;63609;49.992;14.512;2022-12-18T09:20:49;99817.19;;;-7.90;63.43
75039;BME280;63609;49.992;14.512;2022-12-18T09:27:06;99844.22;;;-6.63;60.38
75039;BME280;63609;49.992;14.512;2022-12-18T09:30:08;99777.56;;;-7.40;60.58
75039;BME280;63609;49.992;14.512;2022-12-18T09:36:28;99780.97;;;-7.66;60.92
75039;BME280;63609;49.992;14.512;2022-12-18T09:39:00;99796.53;;;-7.70;61.63
75039;BME280;63609;49.992;14.512;2022-12-18T09:42:12;99850.28;;;-7.08;61.19
75039;BME280;63609;49.992;14.512;2022-12-18T09:48:56;99864.13;;;-7.06;59.88
75039;BME280;63609;49.992;14.512;2022-12-18T10:27:58;99866.66;;;-6.19;56.78
75039;BME280;63609;49.992;14.512;2022-12-18T10:30:31;99792.22;;;-6.37;55.73
75039;BME280;63609;49.992;14.512;2022-12-18T10:33:32;99852.81;;;-6.11;55.95
75039;BME280;63609;49.992;14.512;2022-12-18T10:36:12;99852.88;;;-6.72;57.58
75039;BME280;63609;49.992;14.512;2022-12-18T10:39:46;99836.31;;;-6.07;57.20
75039;BME280;63609;49.992;14.512;2022-12-18T10:43:29;99807.75;;;-6.11;56.52
75039;BME280;63609;49.992;14.512;2022-12-18T10:57:49;99779.16;;;-6.17;56.29
75039;BME280;63609;49.992;14.512;2022-12-18T11:00:29;99767.00;;;-6.06;55.89
75039;BME280;63609;49.992;14.512;2022-12-18T11:03:34;99761.84;;;-6.23;56.06
75039;BME280;63609;49.992;14.512;2022-12-18T11:06:22;99791.25;;;-6.07;56.18
75039;BME280;63609;49.992;14.512;2022-12-18T11:10:13;99793.94;;;-6.38;56.87
75039;BME280;63609;49.992;14.512;2022-12-18T11:13:22;99761.94;;;-6.58;57.04
75039;BME280;63609;49.992;14.512;2022-12-18T11:21:06;99789.66;;;-6.61;58.05
75039;BME280;63609;49.992;14.512;2022-12-18T11:24:01;99778.41;;;-6.59;57.92
75039;BME280;63609;49.992;14.512;2022-12-18T11:31:20;99746.31;;;-6.38;56.61
75039;BME280;63609;49.992;14.512;2022-12-18T11:42:58;99730.03;;;-7.10;57.69
75039;BME280;63609;49.992;14.512;2022-12-18T11:45:59;99752.47;;;-6.70;58.54
75039;BME280;63609;49.992;14.512;2022-12-18T11:53:09;99799.81;;;-5.79;56.78
75039;BME280;63609;49.992;14.512;2022-12-18T11:58:49;99796.63;;;-6.92;58.62
75039;BME280;63609;49.992;14.512;2022-12-18T12:06:08;99799.94;;;-6.19;58.29
75039;BME280;63609;49.992;14.512;2022-12-18T12:46:45;99772.22;;;-6.17;58.65
75039;BME280;63609;49.992;14.512;2022-12-18T12:53:20;99816.53;;;-6.96;61.46
75039;BME280;63609;49.992;14.512;2022-12-18T13:16:21;99826.88;;;-6.56;61.55
75039;BME280;63609;49.992;14.512;2022-12-18T13:20:32;99822.56;;;-6.88;61.81
75039;BME280;63609;49.992;14.512;2022-12-18T13:41:35;99757.31;;;-5.75;59.01
75039;BME280;63609;49.992;14.512;2022-12-18T13:50:02;99799.59;;;-5.39;58.87
75039;BME280;63609;49.992;14.512;2022-12-18T14:05:42;99800.59;;;-5.65;60.26
75039;BME280;63609;49.992;14.512;2022-12-18T14:13:41;99781.84;;;-6.43;61.89
75039;BME280;63609;49.992;14.512;2022-12-18T14:22:00;99827.63;;;-6.01;60.84
75039;BME280;63609;49.992;14.512;2022-12-18T14:25:49;99798.31;;;-6.59;61.49
75039;BME280;63609;49.992;14.512;2022-12-18T14:28:53;99837.28;;;-6.55;62.51
75039;BME280;63609;49.992;14.512;2022-12-18T14:39:17;99825.13;;;-6.36;61.43
75039;BME280;63609;49.992;14.512;2022-12-18T14:41:48;99829.47;;;-6.49;61.66
75039;BME280;63609;49.992;14.512;2022-12-18T14:44:15;99834.66;;;-6.41;61.04
75039;BME280;63609;49.992;14.512;2022-12-18T14:46:45;99813.88;;;-6.46;60.85
75039;BME280;63609;49.992;14.512;2022-12-18T14:49:33;99832.94;;;-6.44;61.46
75039;BME280;63609;49.992;14.512;2022-12-18T14:52:24;99834.63;;;-6.27;60.51
75039;BME280;63609;49.992;14.512;2022-12-18T14:54:52;99814.69;;;-6.12;59.84
75039;BME280;63609;49.992;14.512;2022-12-18T14:57:27;99825.03;;;-6.13;61.06
75039;BME280;63609;49.992;14.512;2022-12-18T15:00:17;99829.41;;;-6.18;60.73
75039;BME280;63609;49.992;14.512;2022-12-18T15:02:53;99816.47;;;-6.52;61.21
75039;BME280;63609;49.992;14.512;2022-12-18T15:05:26;99807.81;;;-6.37;60.67
75039;BME280;63609;49.992;14.512;2022-12-18T15:07:56;99821.69;;;-6.56;61.15
75039;BME280;63609;49.992;14.512;2022-12-18T15:10:30;99835.53;;;-6.50;61.07
75039;BME280;63609;49.992;14.512;2022-12-18T15:20:56;99818.22;;;-6.60;61.73
75039;BME280;63609;49.992;14.512;2022-12-18T15:26:08;99787.88;;;-6.46;59.91
75039;BME280;63609;49.992;14.512;2022-12-18T15:28:48;99812.16;;;-6.45;59.88
75039;BME280;63609;49.992;14.512;2022-12-18T15:31:31;99803.53;;;-6.75;60.62
75039;BME280;63609;49.992;14.512;2022-12-18T15:34:10;99783.63;;;-7.18;62.10
75039;BME280;63609;49.992;14.512;2022-12-18T15:36:39;99819.97;;;-6.80;61.18
75039;BME280;63609;49.992;14.512;2022-12-18T15:39:05;99819.94;;;-6.53;59.56
75039;BME280;63609;49.992;14.512;2022-12-18T15:41:48;99804.38;;;-7.17;61.24
75039;BME280;63609;49.992;14.512;2022-12-18T15:44:44;99816.53;;;-7.10;60.74
75039;BME280;63609;49.992;14.512;2022-12-18T15:48:26;99817.41;;;-7.06;60.57
75039;BME280;63609;49.992;14.512;2022-12-18T15:51:13;99756.81;;;-7.39;60.01
75039;BME280;63609;49.992;14.512;2022-12-18T15:53:52;99810.47;;;-6.98;59.11
75039;BME280;63609;49.992;14.512;2022-12-18T15:56:21;99781.03;;;-7.15;58.38
75039;BME280;63609;49.992;14.512;2022-12-18T16:03:41;99785.38;;;-7.01;57.60
75039;BME280;63609;49.992;14.512;2022-12-18T16:06:11;99748.19;;;-7.36;57.22
75039;BME280;63609;49.992;14.512;2022-12-18T16:08:48;99798.38;;;-7.08;57.11
75039;BME280;63609;49.992;14.512;2022-12-18T16:11:26;99803.53;;;-7.19;57.12
75039;BME280;63609;49.992;14.512;2022-12-18T16:14:25;99788.81;;;-7.29;56.43
75039;BME280;63609;49.992;14.512;2022-12-18T16:16:57;99782.75;;;-7.37;56.62
75039;BME280;63609;49.992;14.512;2022-12-18T16:19:26;99789.69;;;-7.42;56.78
75039;BME280;63609;49.992;14.512;2022-12-18T16:21:55;99796.56;;;-7.49;57.29
75039;BME280;63609;49.992;14.512;2022-12-18T16:24:27;99796.56;;;-7.53;56.81
75039;BME280;63609;49.992;14.512;2022-12-18T16:27:00;99801.75;;;-7.49;56.39
75039;BME280;63609;49.992;14.512;2022-12-18T16:30:08;99788.75;;;-7.69;56.73
75039;BME280;63609;49.992;14.512;2022-12-18T16:32:38;99774.03;;;-7.76;56.44
75039;BME280;63609;49.992;14.512;2022-12-18T16:35:05;99776.59;;;-7.85;56.29
75039;BME280;63609;49.992;14.512;2022-12-18T16:37:32;99782.63;;;-7.95;56.87
75039;BME280;63609;49.992;14.512;2022-12-18T16:39:59;99780.03;;;-7.90;56.43
75039;BME280;63609;49.992;14.512;2022-12-18T16:42:26;99786.06;;;-7.98;56.05
75039;BME280;63609;49.992;14.512;2022-12-18T16:44:54;99779.75;;;-8.54;57.03
75039;BME280;63609;49.992;14.512;2022-12-18T16:47:21;99779.13;;;-9.38;56.46
75039;BME280;63609;49.992;14.512;2022-12-18T16:49:48;99798.13;;;-9.35;58.26
75039;BME280;63609;49.992;14.512;2022-12-18T16:52:20;99795.56;;;-9.35;57.62
75039;BME280;63609;49.992;14.512;2022-12-18T16:54:47;99794.00;;;-9.13;57.31
75039;BME280;63609;49.992;14.512;2022-12-18T16:57:19;99797.59;;;-8.97;56.29
75039;BME280;63609;49.992;14.512;2022-12-18T16:59:47;99789.03;;;-8.89;56.56
75039;BME280;63609;49.992;14.512;2022-12-18T17:02:20;99785.50;;;-8.98;56.69
75039;BME280;63609;49.992;14.512;2022-12-18T17:04:55;99797.63;;;-8.93;56.63
75039;BME280;63609;49.992;14.512;2022-12-18T17:07:23;99801.94;;;-8.92;57.11
75039;BME280;63609;49.992;14.512;2022-12-18T17:09:51;99806.91;;;-9.17;56.01
75039;BME280;63609;49.992;14.512;2022-12-18T17:12:20;99806.88;;;-9.21;56.64
75039;BME280;63609;49.992;14.512;2022-12-18T17:14:47;99804.19;;;-9.33;56.27
75039;BME280;63609;49.992;14.512;2022-12-18T17:17:14;99806.63;;;-9.45;55.91
75039;BME280;63609;49.992;14.512;2022-12-18T17:19:51;99808.69;;;-9.97;53.04
75039;BME280;63609;49.992;14.512;2022-12-18T17:22:19;99799.00;;;-10.11;55.82
75039;BME280;63609;49.992;14.512;2022-12-18T17:24:46;99781.97;;;-9.99;55.26
75039;BME280;63609;49.992;14.512;2022-12-18T17:27:16;99780.34;;;-9.88;56.12
75039;BME280;63609;49.992;14.512;2022-12-18T17:29:46;99796.72;;;-9.87;57.67
75039;BME280;63609;49.992;14.512;2022-12-18T17:32:24;99804.59;;;-9.75;56.95
75039;BME280;63609;49.992;14.512;2022-12-18T17:35:17;99813.19;;;-10.50;54.38
75039;BME280;63609;49.992;14.512;2022-12-18T17:37:54;99783.94;;;-11.06;55.46
75039;BME280;63609;49.992;14.512;2022-12-18T17:40:22;99815.34;;;-10.78;55.17
75039;BME280;63609;49.992;14.512;2022-12-18T17:42:51;99812.28;;;-11.08;55.41
75039;BME280;63609;49.992;14.512;2022-12-18T17:45:36;99798.47;;;-11.64;56.95
75039;BME280;63609;49.992;14.512;2022-12-18T17:48:19;99742.91;;;-11.47;56.02
75039;BME280;63609;49.992;14.512;2022-12-18T17:50:51;99806.50;;;-10.95;55.27
75039;BME280;63609;49.992;14.512;2022-12-18T17:53:18;99800.25;;;-11.09;57.12
75039;BME280;63609;49.992;14.512;2022-12-18T17:55:55;99800.34;;;-11.01;58.32
75039;BME280;63609;49.992;14.512;2022-12-18T17:58:25;99807.31;;;-10.97;59.63
75039;BME280;63609;49.992;14.512;2022-12-18T18:00:51;99793.03;;;-10.75;59.75
75039;BME280;63609;49.992;14.512;2022-12-18T18:03:18;99790.72;;;-10.57;58.54
75039;BME280;63609;49.992;14.512;2022-12-18T18:05:46;99799.47;;;-10.44;56.89
75039;BME280;63609;49.992;14.512;2022-12-18T18:08:23;99802.22;;;-10.93;54.36
75039;BME280;63609;49.992;14.512;2022-12-18T18:10:52;99805.00;;;-10.79;55.30
75039;BME280;63609;49.992;14.512;2022-12-18T18:14:45;99741.56;;;-11.25;56.49
75039;BME280;63609;49.992;14.512;2022-12-18T18:17:18;99758.38;;;-10.93;56.62
75039;BME280;63609;49.992;14.512;2022-12-18T18:19:45;99762.47;;;-10.47;57.23
75039;BME280;63609;49.992;14.512;2022-12-18T18:22:25;99764.44;;;-10.24;56.96
75039;BME280;63609;49.992;14.512;2022-12-18T18:24:52;99777.31;;;-10.29;56.88
75039;BME280;63609;49.992;14.512;2022-12-18T18:27:42;99777.25;;;-10.33;56.57
75039;BME280;63609;49.992;14.512;2022-12-18T18:30:14;99766.25;;;-10.17;55.87
75039;BME280;63609;49.992;14.512;2022-12-18T18:32:40;99763.72;;;-10.11;56.28
75039;BME280;63609;49.992;14.512;2022-12-18T18:35:09;99770.66;;;-10.05;56.40
75039;BME280;63609;49.992;14.512;2022-12-18T18:38:01;99764.03;;;-9.85;56.00
75039;BME280;63609;49.992;14.512;2022-12-18T18:40:30;99771.78;;;-9.85;55.88
75039;BME280;63609;49.992;14.512;2022-12-18T18:42:56;99782.09;;;-9.85;56.08
75039;BME280;63609;49.992;14.512;2022-12-18T18:45:24;99778.56;;;-9.96;56.04
75039;BME280;63609;49.992;14.512;2022-12-18T18:47:51;99773.16;;;-10.13;56.04
75039;BME280;63609;49.992;14.512;2022-12-18T18:50:21;99792.09;;;-10.14;56.63
75039;BME280;63609;49.992;14.512;2022-12-18T18:52:48;99786.09;;;-10.11;56.18
75039;BME280;63609;49.992;14.512;2022-12-18T18:55:17;99798.13;;;-10.14;56.42
75039;BME280;63609;49.992;14.512;2022-12-18T18:57:51;99803.16;;;-10.26;56.34
75039;BME280;63609;49.992;14.512;2022-12-18T19:00:18;99794.63;;;-10.20;55.73
75039;BME280;63609;49.992;14.512;2022-12-18T19:02:45;99807.41;;;-10.29;55.82
75039;BME280;63609;49.992;14.512;2022-12-18T19:05:15;99801.94;;;-10.55;55.27
75039;BME280;63609;49.992;14.512;2022-12-18T19:07:47;99816.50;;;-10.59;55.25
75039;BME280;63609;49.992;14.512;2022-12-18T19:10:14;99780.06;;;-10.80;55.58
75039;BME280;63609;49.992;14.512;2022-12-18T19:12:41;99792.44;;;-10.56;55.21
75039;BME280;63609;49.992;14.512;2022-12-18T19:15:32;99781.41;;;-10.46;55.68
75039;BME280;63609;49.992;14.512;2022-12-18T19:17:59;99791.09;;;-10.25;55.92
75039;BME280;63609;49.992;14.512;2022-12-18T19:20:28;99794.72;;;-10.09;56.04
75039;BME280;63609;49.992;14.512;2022-12-18T19:22:57;99784.31;;;-10.19;56.15
75039;BME280;63609;49.992;14.512;2022-12-18T19:25:25;99792.16;;;-10.09;56.12
75039;BME280;63609;49.992;14.512;2022-12-18T19:28:09;99780.97;;;-10.07;55.97
75039;BME280;63609;49.992;14.512;2022-12-18T19:30:52;99774.22;;;-9.99;55.88